createdAt,value
2019-05-26T00:00:51.318Z,101041.27
2019-05-26T00:03:19.843Z,101043.58
2019-05-26T00:05:48.292Z,101045.95
2019-05-26T00:08:16.762Z,101042.74
2019-05-26T00:10:45.192Z,101045.56
2019-05-26T00:13:13.634Z,101040.80
2019-05-26T00:15:42.068Z,101043.09
2019-05-26T00:18:10.507Z,101047.55
2019-05-26T00:20:38.939Z,101050.98
2019-05-26T00:23:07.380Z,101046.55
2019-05-26T00:25:35.889Z,101046.05
2019-05-26T00:28:04.346Z,101039.23
2019-05-26T00:30:32.827Z,101034.36
2019-05-26T00:33:01.285Z,101032.38
2019-05-26T00:35:29.702Z,101028.62
2019-05-26T00:37:59.817Z,101031.02
2019-05-26T00:40:28.317Z,101029.06
2019-05-26T00:43:02.774Z,101025.03
2019-05-26T00:45:30.536Z,101022.39
2019-05-26T00:47:58.920Z,101022.53
2019-05-26T00:50:27.417Z,101020.88
2019-05-26T00:52:56.879Z,101023.11
2019-05-26T00:55:25.536Z,101013.52
2019-05-26T00:57:54.056Z,101015.41
2019-05-26T01:00:42.713Z,101013.39
2019-05-26T01:03:13.150Z,101016.52
2019-05-26T01:05:41.671Z,101018.09
2019-05-26T01:08:10.223Z,101018.30
2019-05-26T01:10:38.773Z,101020.78
2019-05-26T01:13:07.415Z,101016.63
2019-05-26T01:15:35.949Z,101016.12
2019-05-26T01:18:05.300Z,101020.23
2019-05-26T01:20:33.752Z,101016.95
2019-05-26T01:23:03.899Z,101022.39
2019-05-26T01:25:32.489Z,101021.22
2019-05-26T01:28:00.970Z,101021.74
2019-05-26T01:30:36.966Z,101012.92
2019-05-26T01:33:06.445Z,101009.71
2019-05-26T01:35:37.532Z,101020.32
2019-05-26T01:38:22.564Z,101016.08
2019-05-26T01:40:43.549Z,101018.11
2019-05-26T01:43:12.212Z,101025.27
2019-05-26T01:45:40.731Z,101020.88
2019-05-26T01:48:09.311Z,101019.86
2019-05-26T01:50:37.898Z,101020.09
2019-05-26T01:53:07.101Z,101013.02
2019-05-26T01:55:35.742Z,101016.86
2019-05-26T01:58:04.788Z,101013.23
2019-05-26T02:00:33.375Z,101011.04
2019-05-26T02:03:01.802Z,101004.70
2019-05-26T02:05:30.326Z,101003.97
2019-05-26T02:07:58.846Z,101007.42
2019-05-26T02:10:27.275Z,101001.59
2019-05-26T02:12:55.756Z,101002.33
2019-05-26T02:15:24.879Z,100996.91
2019-05-26T02:17:53.321Z,101002.22
2019-05-26T02:20:21.876Z,100997.16
2019-05-26T02:22:50.318Z,100990.99
2019-05-26T02:25:19.391Z,100993.78
2019-05-26T02:27:47.856Z,100995.56
2019-05-26T02:30:16.833Z,100992.20
2019-05-26T02:32:45.254Z,100984.98
2019-05-26T02:35:14.015Z,100982.27
2019-05-26T02:37:42.571Z,100981.20
2019-05-26T02:40:12.822Z,100982.17
2019-05-26T02:42:41.277Z,100985.05
2019-05-26T02:45:13.869Z,100979.87
2019-05-26T02:47:42.314Z,100978.98
2019-05-26T02:50:11.698Z,100976.02
2019-05-26T02:52:40.150Z,100975.60
2019-05-26T02:55:09.340Z,100972.26
2019-05-26T02:57:37.953Z,100972.81
2019-05-26T03:00:09.363Z,100970.51
2019-05-26T03:02:37.945Z,100975.19
2019-05-26T03:05:09.216Z,100969.22
2019-05-26T03:07:41.040Z,100969.31
2019-05-26T03:10:09.813Z,100960.84
2019-05-26T03:12:41.305Z,100960.92
2019-05-26T03:15:12.593Z,100968.20
2019-05-26T03:17:42.675Z,100965.75
2019-05-26T03:20:13.599Z,100971.84
2019-05-26T03:22:43.027Z,100968.98
2019-05-26T03:25:14.586Z,100967.94
2019-05-26T03:27:43.024Z,100968.73
2019-05-26T03:30:11.580Z,100967.42
2019-05-26T03:32:40.055Z,100968.31
2019-05-26T03:35:09.658Z,100967.70
2019-05-26T03:37:38.143Z,100965.60
2019-05-26T03:40:10.335Z,100963.77
2019-05-26T03:42:38.792Z,100972.99
2019-05-26T03:45:08.338Z,100972.23
2019-05-26T03:47:36.754Z,100969.75
2019-05-26T03:50:08.690Z,100975.45
2019-05-26T03:52:38.741Z,100975.53
2019-05-26T03:55:08.139Z,100969.44
2019-05-26T03:57:36.591Z,100978.26
2019-05-26T04:00:08.276Z,100977.81
2019-05-26T04:02:36.781Z,100976.83
2019-05-26T04:05:09.638Z,100975.38
2019-05-26T04:07:38.141Z,100972.00
2019-05-26T04:10:07.978Z,100969.02
2019-05-26T04:12:36.400Z,100973.41
2019-05-26T04:15:07.982Z,100966.80
2019-05-26T04:17:36.510Z,100959.78
2019-05-26T04:20:06.306Z,100957.88
2019-05-26T04:22:34.736Z,100961.67
2019-05-26T04:25:04.777Z,100957.34
2019-05-26T04:27:33.219Z,100961.75
2019-05-26T04:30:01.659Z,100950.66
2019-05-26T04:32:30.091Z,100951.31
2019-05-26T04:34:58.520Z,100897.24
2019-05-26T04:37:26.969Z,100949.05
2019-05-26T04:39:55.402Z,100941.87
2019-05-26T04:42:23.851Z,100946.72
2019-05-26T04:44:52.293Z,100948.03
2019-05-26T04:47:20.721Z,100950.25
2019-05-26T04:49:49.159Z,100951.33
2019-05-26T04:52:17.585Z,100942.94
2019-05-26T04:54:46.094Z,100946.54
2019-05-26T04:57:14.529Z,100946.50
2019-05-26T04:59:42.980Z,100943.33
2019-05-26T05:02:11.473Z,100938.45
2019-05-26T05:04:39.912Z,100936.41
2019-05-26T05:07:08.335Z,100934.69
2019-05-26T05:09:36.770Z,100934.60
2019-05-26T05:12:05.665Z,100929.24
2019-05-26T05:14:34.087Z,100920.34
2019-05-26T05:17:02.553Z,100928.05
2019-05-26T05:19:30.975Z,100923.12
2019-05-26T05:22:05.735Z,100923.02
2019-05-26T05:24:34.134Z,100921.38
2019-05-26T05:27:02.575Z,100913.30
2019-05-26T05:29:31.049Z,100907.03
2019-05-26T05:31:59.476Z,100914.20
2019-05-26T05:34:27.942Z,100922.41
2019-05-26T05:36:56.388Z,100916.67
2019-05-26T05:39:24.816Z,100915.01
2019-05-26T05:41:53.249Z,100919.98
2019-05-26T05:44:21.689Z,100921.77
2019-05-26T05:46:50.159Z,100913.73
2019-05-26T05:49:18.596Z,100919.50
2019-05-26T05:51:47.025Z,100908.50
2019-05-26T05:54:15.449Z,100911.03
2019-05-26T05:56:43.897Z,100915.98
2019-05-26T05:59:12.374Z,100909.27
2019-05-26T06:01:40.816Z,100908.45
2019-05-26T06:04:09.239Z,100911.39
2019-05-26T06:06:37.690Z,100910.52
2019-05-26T06:09:07.247Z,100908.41
2019-05-26T06:11:35.689Z,100906.07
2019-05-26T06:14:04.369Z,100904.95
2019-05-26T06:16:32.812Z,100891.25
2019-05-26T06:19:02.906Z,100893.16
2019-05-26T06:21:31.336Z,100898.77
2019-05-26T06:23:59.759Z,100893.52
2019-05-26T06:26:28.228Z,100899.01
2019-05-26T06:28:56.725Z,100895.81
2019-05-26T06:31:25.174Z,100897.04
2019-05-26T06:33:53.594Z,100899.67
2019-05-26T06:36:22.066Z,100899.19
2019-05-26T06:38:50.474Z,100897.44
2019-05-26T06:41:32.420Z,100903.34
2019-05-26T06:43:49.197Z,100894.84
2019-05-26T06:46:17.629Z,100891.37
2019-05-26T06:48:46.095Z,100898.17
2019-05-26T06:51:14.593Z,100891.09
2019-05-26T06:53:43.068Z,100898.77
2019-05-26T06:56:11.492Z,100900.16
2019-05-26T06:58:39.944Z,100896.70
2019-05-26T07:01:10.022Z,100895.63
2019-05-26T07:03:38.470Z,100896.88
2019-05-26T07:06:06.885Z,100893.35
2019-05-26T07:08:35.523Z,100890.46
2019-05-26T07:11:06.957Z,100903.14
2019-05-26T07:13:35.424Z,100905.09
2019-05-26T07:16:04.523Z,100896.88
2019-05-26T07:18:34.646Z,100905.84
2019-05-26T07:21:05.910Z,100903.41
2019-05-26T07:23:34.367Z,100896.83
2019-05-26T07:26:02.818Z,100901.80
2019-05-26T07:28:31.309Z,100907.15
2019-05-26T07:30:59.763Z,100905.55
2019-05-26T07:33:43.252Z,100901.95
2019-05-26T07:36:11.923Z,100898.23
2019-05-26T07:38:40.414Z,100903.03
2019-05-26T07:41:10.541Z,100895.77
2019-05-26T07:43:39.024Z,100891.73
2019-05-26T07:46:07.496Z,100887.37
2019-05-26T07:48:36.350Z,100883.75
2019-05-26T07:51:05.019Z,100887.70
2019-05-26T07:53:33.465Z,100885.81
2019-05-26T07:56:01.911Z,100883.82
2019-05-26T07:58:31.962Z,100888.79
2019-05-26T08:01:00.393Z,100881.59
2019-05-26T08:03:28.877Z,100872.39
2019-05-26T08:05:57.299Z,100866.78
2019-05-26T08:08:25.729Z,100875.34
2019-05-26T08:10:54.168Z,100873.89
2019-05-26T08:13:22.605Z,100886.24
2019-05-26T08:15:51.105Z,100876.00
2019-05-26T08:18:19.608Z,100871.40
2019-05-26T08:20:48.061Z,100876.84
2019-05-26T08:23:16.503Z,100873.96
2019-05-26T08:25:45.010Z,100874.59
2019-05-26T08:28:13.996Z,100870.52
2019-05-26T08:30:42.424Z,100869.98
2019-05-26T08:33:10.873Z,100872.32
2019-05-26T08:35:39.460Z,100878.86
2019-05-26T08:38:07.877Z,100876.91
2019-05-26T08:40:36.319Z,100869.16
2019-05-26T08:43:04.892Z,100864.56
2019-05-26T08:45:33.319Z,100868.10
2019-05-26T08:48:01.733Z,100860.87
2019-05-26T08:50:33.941Z,100865.92
2019-05-26T08:53:00.379Z,100863.99
2019-05-26T08:55:28.874Z,100860.23
2019-05-26T08:57:57.453Z,100861.13
2019-05-26T09:00:26.846Z,100858.05
2019-05-26T09:02:55.275Z,100849.55
2019-05-26T09:05:23.735Z,100852.27
2019-05-26T09:07:52.164Z,100851.60
2019-05-26T09:10:23.426Z,100856.56
2019-05-26T09:13:00.943Z,100854.84
2019-05-26T09:15:22.153Z,100850.13
2019-05-26T09:17:50.586Z,100850.01
2019-05-26T09:20:19.451Z,100851.60
2019-05-26T09:22:47.885Z,100859.67
2019-05-26T09:25:16.400Z,100852.58
2019-05-26T09:27:44.828Z,100848.73
2019-05-26T09:30:14.358Z,100846.59
2019-05-26T09:32:44.732Z,100854.59
2019-05-26T09:35:13.662Z,100839.86
2019-05-26T09:37:42.115Z,100837.66
2019-05-26T09:40:13.076Z,100842.59
2019-05-26T09:42:41.516Z,100835.11
2019-05-26T09:45:10.472Z,100834.34
2019-05-26T09:47:39.248Z,100836.87
2019-05-26T09:50:08.708Z,100840.05
2019-05-26T09:52:37.510Z,100830.53
2019-05-26T09:55:07.933Z,100832.47
2019-05-26T09:57:39.911Z,100827.27
2019-05-26T10:00:09.830Z,100829.59
2019-05-26T10:02:38.855Z,100821.50
2019-05-26T10:05:11.005Z,100819.70
2019-05-26T10:07:40.589Z,100824.75
2019-05-26T10:10:09.748Z,100824.09
2019-05-26T10:12:38.292Z,100824.45
2019-05-26T10:15:07.801Z,100810.83
2019-05-26T10:17:38.094Z,100818.41
2019-05-26T10:20:13.465Z,100820.03
2019-05-26T10:22:41.912Z,100810.98
2019-05-26T10:25:10.858Z,100807.15
2019-05-26T10:27:39.356Z,100811.04
2019-05-26T10:30:09.789Z,100806.05
2019-05-26T10:32:38.201Z,100800.17
2019-05-26T10:35:07.878Z,100807.83
2019-05-26T10:37:36.500Z,100801.31
2019-05-26T10:40:06.838Z,100812.09
2019-05-26T10:42:35.335Z,100812.62
2019-05-26T10:45:08.289Z,100813.75
2019-05-26T10:47:36.775Z,100814.02
2019-05-26T10:50:09.674Z,100803.13
2019-05-26T10:52:38.183Z,100807.86
2019-05-26T10:55:08.749Z,100806.59
2019-05-26T10:57:43.161Z,100796.14
2019-05-26T11:00:11.333Z,100797.05
2019-05-26T11:02:39.709Z,100799.39
2019-05-26T11:05:09.739Z,100803.31
2019-05-26T11:07:38.166Z,100802.72
2019-05-26T11:10:07.634Z,100798.52
2019-05-26T11:12:36.121Z,100802.04
2019-05-26T11:15:07.604Z,100793.88
2019-05-26T11:17:36.105Z,100806.32
2019-05-26T11:20:06.769Z,100802.45
2019-05-26T11:22:35.174Z,100799.59
2019-05-26T11:25:04.949Z,100791.12
2019-05-26T11:27:33.368Z,100791.69
2019-05-26T11:30:01.875Z,100790.38
2019-05-26T11:32:30.289Z,100791.91
2019-05-26T11:35:01.746Z,100786.85
2019-05-26T11:37:28.848Z,100784.50
2019-05-26T11:39:57.290Z,100781.44
2019-05-26T11:42:25.710Z,100771.17
2019-05-26T11:44:54.166Z,100766.69
2019-05-26T11:47:22.613Z,100768.57
2019-05-26T11:49:51.181Z,100769.46
2019-05-26T11:52:20.425Z,100771.34
2019-05-26T11:54:48.966Z,100754.84
2019-05-26T11:57:17.379Z,100755.11
2019-05-26T11:59:47.278Z,100747.18
2019-05-26T12:02:16.007Z,100749.30
2019-05-26T12:04:44.437Z,100758.66
2019-05-26T12:07:12.884Z,100745.55
2019-05-26T12:09:42.542Z,100745.27
2019-05-26T12:12:10.961Z,100747.02
2019-05-26T12:14:39.380Z,100744.09
2019-05-26T12:17:07.964Z,100751.98
2019-05-26T12:19:36.388Z,100737.10
2019-05-26T12:22:05.077Z,100751.75
2019-05-26T12:24:33.512Z,100747.45
2019-05-26T12:27:01.991Z,100735.27
2019-05-26T12:29:30.399Z,100731.97
2019-05-26T12:31:58.876Z,100725.20
2019-05-26T12:34:27.311Z,100726.95
2019-05-26T12:36:55.725Z,100719.63
2019-05-26T12:39:24.160Z,100721.27
2019-05-26T12:41:52.594Z,100717.91
2019-05-26T12:44:21.004Z,100713.41
2019-05-26T12:46:49.438Z,100707.21
2019-05-26T12:49:17.849Z,100695.77
2019-05-26T12:51:46.272Z,100707.91
2019-05-26T12:54:14.696Z,100700.73
2019-05-26T12:56:43.132Z,100699.17
2019-05-26T12:59:11.543Z,100698.80
2019-05-26T13:01:40.057Z,100693.48
2019-05-26T13:04:08.484Z,100696.99
2019-05-26T13:06:36.910Z,100701.64
2019-05-26T13:09:08.382Z,100694.25
2019-05-26T13:11:36.831Z,100687.56
2019-05-26T13:14:05.580Z,100682.51
2019-05-26T13:16:35.964Z,100683.94
2019-05-26T13:19:04.795Z,100683.91
2019-05-26T13:21:33.229Z,100680.72
2019-05-26T13:24:01.660Z,100685.37
2019-05-26T13:26:30.094Z,100687.95
2019-05-26T13:28:58.529Z,100676.63
2019-05-26T13:31:26.950Z,100675.95
2019-05-26T13:33:55.380Z,100674.52
2019-05-26T13:36:23.789Z,100674.80
2019-05-26T13:38:52.232Z,100544.81
2019-05-26T13:41:20.651Z,100675.20
2019-05-26T13:43:49.111Z,100670.58
2019-05-26T13:46:17.538Z,100669.99
2019-05-26T13:48:45.971Z,100674.36
2019-05-26T13:51:14.402Z,100672.48
2019-05-26T13:53:42.851Z,100664.52
2019-05-26T13:56:11.263Z,100672.08
2019-05-26T13:58:39.766Z,100663.37
2019-05-26T14:01:09.236Z,100659.80
2019-05-26T14:03:37.686Z,100663.36
2019-05-26T14:06:06.139Z,100658.84
2019-05-26T14:08:34.576Z,100660.84
2019-05-26T14:11:02.989Z,100662.55
2019-05-26T14:13:31.509Z,100655.70
2019-05-26T14:16:01.436Z,100654.94
2019-05-26T14:18:31.807Z,100657.42
2019-05-26T14:21:00.227Z,100652.17
2019-05-26T14:23:34.662Z,100647.33
2019-05-26T14:26:02.356Z,100651.77
2019-05-26T14:28:30.738Z,100643.25
2019-05-26T14:30:59.157Z,100651.77
2019-05-26T14:33:27.596Z,100648.16
2019-05-26T14:35:56.031Z,100637.45
2019-05-26T14:38:24.481Z,100642.72
2019-05-26T14:40:52.958Z,100636.06
2019-05-26T14:43:21.399Z,100642.80
2019-05-26T14:45:53.655Z,100635.80
2019-05-26T14:48:19.995Z,100634.73
2019-05-26T14:50:48.456Z,100632.74
2019-05-26T14:53:16.876Z,100625.00
2019-05-26T14:55:47.980Z,100629.00
2019-05-26T14:58:16.924Z,100629.30
2019-05-26T15:00:45.422Z,100621.34
2019-05-26T15:03:13.857Z,100626.25
2019-05-26T15:05:42.271Z,100617.86
2019-05-26T15:08:10.736Z,100616.87
2019-05-26T15:10:39.176Z,100604.67
2019-05-26T15:13:07.678Z,100603.72
2019-05-26T15:15:36.124Z,100604.58
2019-05-26T15:18:04.695Z,100600.03
2019-05-26T15:20:33.157Z,100598.45
2019-05-26T15:23:01.656Z,100598.64
2019-05-26T15:25:30.121Z,100592.50
2019-05-26T15:27:58.588Z,100592.55
2019-05-26T15:30:27.023Z,100589.09
2019-05-26T15:32:55.478Z,100585.81
2019-05-26T15:35:24.011Z,100581.73
2019-05-26T15:37:52.441Z,100576.60
2019-05-26T15:40:20.931Z,100583.17
2019-05-26T15:42:49.317Z,100580.89
2019-05-26T15:45:18.089Z,100585.14
2019-05-26T15:47:46.518Z,100578.98
2019-05-26T15:50:16.723Z,100579.69
2019-05-26T15:52:45.221Z,100579.19
2019-05-26T15:55:13.949Z,100578.07
2019-05-26T15:57:42.369Z,100573.29
2019-05-26T16:00:11.096Z,100570.19
2019-05-26T16:02:39.456Z,100569.64
2019-05-26T16:05:08.235Z,100565.71
2019-05-26T16:07:36.653Z,100566.80
2019-05-26T16:10:08.591Z,100569.73
2019-05-26T16:12:37.082Z,100564.71
2019-05-26T16:15:07.569Z,100565.30
2019-05-26T16:17:38.698Z,100563.85
2019-05-26T16:20:08.244Z,100551.64
2019-05-26T16:22:36.746Z,100549.41
2019-05-26T16:25:08.150Z,100550.02
2019-05-26T16:27:36.864Z,100547.39
2019-05-26T16:30:07.513Z,100547.70
2019-05-26T16:32:35.921Z,100542.73
2019-05-26T16:35:04.892Z,100542.90
2019-05-26T16:37:33.321Z,100534.91
2019-05-26T16:40:01.773Z,100532.72
2019-05-26T16:42:30.232Z,100531.99
2019-05-26T16:44:58.648Z,100532.08
2019-05-26T16:47:27.066Z,100529.95
2019-05-26T16:49:55.506Z,100523.02
2019-05-26T16:52:23.983Z,100519.73
2019-05-26T16:54:55.269Z,100517.66
2019-05-26T16:57:23.707Z,100519.16
2019-05-26T16:59:52.160Z,100514.28
2019-05-26T17:02:20.566Z,100510.02
2019-05-26T17:04:48.990Z,100508.52
2019-05-26T17:07:17.461Z,100506.80
2019-05-26T17:09:45.832Z,100496.98
2019-05-26T17:12:14.256Z,100502.84
2019-05-26T17:14:42.687Z,100492.86
2019-05-26T17:17:14.978Z,100490.66
2019-05-26T17:19:41.332Z,100487.20
2019-05-26T17:22:09.755Z,100489.94
2019-05-26T17:24:38.176Z,100485.36
2019-05-26T17:27:06.603Z,100487.93
2019-05-26T17:29:35.160Z,100473.97
2019-05-26T17:32:03.679Z,100491.34
2019-05-26T17:34:32.099Z,100488.52
2019-05-26T17:37:00.532Z,100486.13
2019-05-26T17:39:28.955Z,100484.89
2019-05-26T17:41:57.381Z,100489.64
2019-05-26T17:44:25.806Z,100487.66
2019-05-26T17:46:54.264Z,100486.14
2019-05-26T17:49:22.712Z,100487.55
2019-05-26T17:51:51.149Z,100489.48
2019-05-26T17:54:19.570Z,100489.05
2019-05-26T17:56:48.011Z,100488.52
2019-05-26T17:59:16.417Z,100484.63
2019-05-26T18:01:44.859Z,100488.56
2019-05-26T18:04:13.268Z,100479.56
2019-05-26T18:06:41.687Z,100489.55
2019-05-26T18:09:10.246Z,100488.26
2019-05-26T18:11:38.673Z,100492.29
2019-05-26T18:14:07.152Z,100480.94
2019-05-26T18:16:35.654Z,100476.65
2019-05-26T18:19:05.263Z,100480.32
2019-05-26T18:21:33.691Z,100476.45
2019-05-26T18:24:02.121Z,100472.02
2019-05-26T18:26:30.526Z,100474.64
2019-05-26T18:28:58.983Z,100470.69
2019-05-26T18:31:29.177Z,100475.92
2019-05-26T18:33:57.609Z,100477.57
2019-05-26T18:36:26.010Z,100477.25
2019-05-26T18:38:54.439Z,100476.30
2019-05-26T18:41:22.858Z,100478.66
2019-05-26T18:43:51.360Z,100477.50
2019-05-26T18:46:19.719Z,100470.87
2019-05-26T18:48:48.153Z,100472.38
2019-05-26T18:51:16.568Z,100468.39
2019-05-26T18:53:45.759Z,100457.57
2019-05-26T18:56:15.682Z,100467.44
2019-05-26T18:58:44.115Z,100466.88
2019-05-26T19:01:12.564Z,100469.66
2019-05-26T19:03:41.041Z,100465.98
2019-05-26T19:06:09.464Z,100467.50
2019-05-26T19:08:37.889Z,100473.74
2019-05-26T19:11:06.369Z,100467.27
2019-05-26T19:13:34.833Z,100473.14
2019-05-26T19:16:03.241Z,100468.03
2019-05-26T19:18:31.669Z,100475.24
2019-05-26T19:21:00.847Z,100467.36
2019-05-26T19:23:30.518Z,100465.19
2019-05-26T19:26:00.953Z,100465.55
2019-05-26T19:28:29.095Z,100466.81
2019-05-26T19:30:57.605Z,100467.09
2019-05-26T19:33:26.033Z,100470.84
2019-05-26T19:35:54.472Z,100466.70
2019-05-26T19:38:22.883Z,100472.17
2019-05-26T19:40:51.327Z,100469.93
2019-05-26T19:43:19.762Z,100480.36
2019-05-26T19:45:48.197Z,100483.75
2019-05-26T19:48:16.620Z,100484.59
2019-05-26T19:50:45.044Z,100481.28
2019-05-26T19:53:13.580Z,100480.39
2019-05-26T19:55:42.024Z,100484.48
2019-05-26T19:58:10.441Z,100495.95
2019-05-26T20:00:38.973Z,100491.91
2019-05-26T20:03:07.463Z,100489.58
2019-05-26T20:05:35.867Z,100492.34
2019-05-26T20:08:04.530Z,100498.02
2019-05-26T20:10:32.965Z,100496.61
2019-05-26T20:13:03.126Z,100496.27
2019-05-26T20:15:37.663Z,100487.33
2019-05-26T20:18:05.465Z,100486.56
2019-05-26T20:20:33.931Z,100486.66
2019-05-26T20:23:02.410Z,100482.75
2019-05-26T20:25:30.935Z,100483.66
2019-05-26T20:27:59.363Z,100487.43
2019-05-26T20:30:27.814Z,100492.56
2019-05-26T20:32:56.251Z,100485.36
2019-05-26T20:35:24.685Z,100483.96
2019-05-26T20:37:53.087Z,100478.01
2019-05-26T20:40:21.606Z,100490.80
2019-05-26T20:42:50.069Z,100490.08
2019-05-26T20:45:19.333Z,100493.75
2019-05-26T20:47:47.750Z,100483.76
2019-05-26T20:50:28.513Z,100491.70
2019-05-26T20:52:46.747Z,100490.16
2019-05-26T20:55:16.301Z,100490.08
2019-05-26T20:57:44.804Z,100484.26
2019-05-26T21:00:14.805Z,100482.55
2019-05-26T21:02:43.516Z,100480.31
2019-05-26T21:05:12.283Z,100482.66
2019-05-26T21:07:40.719Z,100482.76
2019-05-26T21:10:09.391Z,100482.41
2019-05-26T21:12:37.834Z,100481.24
2019-05-26T21:15:07.196Z,100469.72
2019-05-26T21:17:36.627Z,100468.33
2019-05-26T21:20:09.864Z,100469.19
2019-05-26T21:22:38.380Z,100469.49
2019-05-26T21:25:08.027Z,100458.35
2019-05-26T21:27:39.479Z,100462.19
2019-05-26T21:30:08.237Z,100467.55
2019-05-26T21:32:36.698Z,100457.05
2019-05-26T21:35:06.766Z,100456.36
2019-05-26T21:37:35.312Z,100464.13
2019-05-26T21:40:05.336Z,100462.58
2019-05-26T21:42:33.771Z,100463.41
2019-05-26T21:45:02.249Z,100456.66
2019-05-26T21:47:30.687Z,100455.50
2019-05-26T21:49:59.104Z,100457.05
2019-05-26T21:52:27.582Z,100454.64
2019-05-26T21:54:55.967Z,100446.87
2019-05-26T21:57:24.400Z,100447.50
2019-05-26T21:59:52.874Z,100446.63
2019-05-26T22:02:21.364Z,100453.31
2019-05-26T22:04:49.801Z,100443.33
2019-05-26T22:07:18.220Z,100447.02
2019-05-26T22:09:46.647Z,100446.65
2019-05-26T22:12:15.095Z,100438.91
2019-05-26T22:14:43.505Z,100439.47
2019-05-26T22:17:11.918Z,100440.93
2019-05-26T22:19:40.350Z,100435.48
2019-05-26T22:22:08.761Z,100438.40
2019-05-26T22:24:37.226Z,100434.12
2019-05-26T22:27:05.709Z,100431.39
2019-05-26T22:29:34.120Z,100427.44
2019-05-26T22:32:02.605Z,100423.01
2019-05-26T22:34:31.064Z,100416.54
2019-05-26T22:36:59.460Z,100414.05
2019-05-26T22:39:27.918Z,100409.85
2019-05-26T22:41:56.351Z,100402.54
2019-05-26T22:44:24.772Z,100409.13
2019-05-26T22:46:53.260Z,100410.36
2019-05-26T22:49:21.683Z,100409.30
2019-05-26T22:51:50.101Z,100405.02
2019-05-26T22:54:18.541Z,100398.42
2019-05-26T22:56:46.937Z,100408.38
2019-05-26T22:59:15.366Z,100400.58
2019-05-26T23:01:43.796Z,100405.66
2019-05-26T23:04:12.226Z,100400.52
2019-05-26T23:06:40.654Z,100399.61
2019-05-26T23:09:09.095Z,100396.45
2019-05-26T23:11:37.515Z,100387.71
2019-05-26T23:14:06.153Z,100386.24
2019-05-26T23:16:34.665Z,100381.89
2019-05-26T23:19:18.007Z,100382.28
2019-05-26T23:21:33.275Z,100377.09
2019-05-26T23:24:01.778Z,100376.66
2019-05-26T23:26:30.219Z,100372.16
2019-05-26T23:28:58.646Z,100372.41
2019-05-26T23:31:27.069Z,100372.25
2019-05-26T23:33:55.547Z,100360.77
2019-05-26T23:36:23.997Z,100361.34
2019-05-26T23:38:52.413Z,100360.67
2019-05-26T23:41:20.857Z,100360.70
2019-05-26T23:43:49.325Z,100359.68
2019-05-26T23:46:17.727Z,100358.51
2019-05-26T23:48:46.331Z,100356.89
2019-05-26T23:51:14.762Z,100358.31
2019-05-26T23:53:43.167Z,100360.19
2019-05-26T23:56:11.728Z,100361.78
2019-05-26T23:58:40.137Z,100367.42
